Time;durP1;ratioP1;P1;durP2;ratioP2;P2;SDS_P1;SDS_P2;PMS_P1;PMS_P2;Temp;Humidity;BMP_temperature;BMP_pressure;BME280_temperature;BME280_humidity;BME280_pressure;Samples;Min_cycle;Max_cycle;Signal;HPM_P1;HPM_P2
2023/06/12 00:01:51;;;;;;;;;;;;;;;19.58;31.49;100952.16;4963113;27;97939;-73
2023/06/12 00:04:19;;;;;;;;;;;;;;;19.51;31.83;100956.47;4969885;27;98050;-74
2023/06/12 00:06:46;;;;;;;;;;;;;;;19.47;31.57;100953.56;4964010;27;97972;-65
2023/06/12 00:09:12;;;;;;;;;;;;;;;19.41;31.71;100960.25;4968382;27;98104;-65
2023/06/12 00:11:41;;;;;;;;;;;;;;;19.38;31.59;100961.72;4975576;27;97917;-73
2023/06/12 00:14:07;;;;;;;;;;;;;;;19.35;31.56;100967.00;4985055;27;98048;-65
2023/06/12 00:16:37;;;;;;;;;;;;;;;19.32;31.56;100959.44;4969022;27;98200;-66
2023/06/12 00:19:03;;;;;;;;;;;;;;;19.29;31.73;100960.84;4970570;27;98446;-73
2023/06/12 00:21:29;;;;;;;;;;;;;;;19.27;31.90;100968.56;4970584;27;98160;-73
2023/06/12 00:23:57;;;;;;;;;;;;;;;19.24;31.70;100960.19;4973360;27;98168;-73
2023/06/12 00:26:26;;;;;;;;;;;;;;;19.22;31.59;100965.19;4977275;27;98273;-67
2023/06/12 00:28:52;;;;;;;;;;;;;;;19.18;31.66;100950.50;4982839;27;98329;-66
2023/06/12 00:31:19;;;;;;;;;;;;;;;19.13;31.69;100954.97;4974816;27;99060;-66
2023/06/12 00:33:47;;;;;;;;;;;;;;;19.12;31.63;100956.09;4980826;27;97978;-66
2023/06/12 00:36:13;;;;;;;;;;;;;;;19.08;31.82;100951.59;4985181;27;98459;-66
2023/06/12 00:38:40;;;;;;;;;;;;;;;19.05;31.79;100957.66;4971031;27;99138;-73
2023/06/12 00:41:06;;;;;;;;;;;;;;;19.01;31.66;100954.75;4988941;27;99552;-73
2023/06/12 00:43:33;;;;;;;;;;;;;;;18.97;31.59;100947.50;4972902;27;100047;-73
2023/06/12 00:46:00;;;;;;;;;;;;;;;18.93;31.60;100958.25;4968052;27;98326;-73
2023/06/12 00:48:27;;;;;;;;;;;;;;;18.89;31.71;100957.25;4984469;27;99800;-65
2023/06/12 00:50:56;;;;;;;;;;;;;;;18.85;31.66;100957.06;4974320;27;98225;-65
2023/06/12 00:53:22;;;;;;;;;;;;;;;18.81;31.90;100955.28;4971795;27;97976;-73
2023/06/12 00:55:49;;;;;;;;;;;;;;;18.79;31.71;100954.78;4970136;27;98034;-66
2023/06/12 00:58:17;;;;;;;;;;;;;;;18.75;31.93;100954.59;4966040;27;98044;-65
2023/06/12 01:00:44;;;;;;;;;;;;;;;18.73;31.86;100956.81;4965105;27;98172;-73
2023/06/12 01:03:12;;;;;;;;;;;;;;;18.70;31.68;100959.31;4969567;27;98420;-73
2023/06/12 01:05:42;;;;;;;;;;;;;;;18.68;31.61;100950.66;4970832;27;98308;-73
2023/06/12 01:08:20;;;;;;;;;;;;;;;18.63;31.91;100954.31;4969525;27;97967;-66
2023/06/12 01:10:57;;;;;;;;;;;;;;;18.58;31.66;100962.59;4984155;27;99859;-73
2023/06/12 01:13:23;;;;;;;;;;;;;;;18.52;31.75;100961.13;4984880;27;98314;-74
2023/06/12 01:15:50;;;;;;;;;;;;;;;18.47;31.73;100961.22;4969754;27;98207;-73
2023/06/12 01:18:17;;;;;;;;;;;;;;;18.43;31.81;100955.59;4971712;27;98370;-66
2023/06/12 01:20:45;;;;;;;;;;;;;;;18.40;31.85;100956.22;4968778;27;98548;-66
2023/06/12 01:23:33;;;;;;;;;;;;;;;18.37;31.76;100957.63;4980158;27;98177;-74
2023/06/12 01:26:33;;;;;;;;;;;;;;;18.35;32.10;100957.16;4998969;27;97900;-74
2023/06/12 01:29:24;;;;;;;;;;;;;;;18.32;31.79;100957.75;4995776;27;98320;-74
2023/06/12 01:31:59;;;;;;;;;;;;;;;18.28;31.95;100954.03;5003071;27;98241;-66
2023/06/12 01:34:37;;;;;;;;;;;;;;;18.24;31.99;100950.28;4985289;27;98250;-66
2023/06/12 01:37:31;;;;;;;;;;;;;;;18.18;31.79;100950.72;4971970;27;97959;-66
2023/06/12 01:39:59;;;;;;;;;;;;;;;18.10;31.83;100953.03;4982104;27;98185;-66
2023/06/12 01:42:27;;;;;;;;;;;;;;;18.06;31.96;100945.78;4972083;27;98609;-73
2023/06/12 01:44:54;;;;;;;;;;;;;;;18.01;31.86;100952.16;4967368;27;98584;-74
2023/06/12 01:47:20;;;;;;;;;;;;;;;17.98;32.00;100938.31;4970385;27;98140;-66
2023/06/12 01:49:47;;;;;;;;;;;;;;;17.95;31.86;100942.47;4968776;27;98060;-66
2023/06/12 01:52:13;;;;;;;;;;;;;;;17.90;32.00;100948.03;4968404;27;99487;-73
2023/06/12 01:54:40;;;;;;;;;;;;;;;17.86;31.96;100950.56;4964100;27;97980;-74
2023/06/12 01:57:08;;;;;;;;;;;;;;;17.80;32.13;100943.59;4963915;27;99364;-73
2023/06/12 01:59:34;;;;;;;;;;;;;;;17.73;32.07;100948.63;4983986;27;98477;-73
2023/06/12 02:02:03;;;;;;;;;;;;;;;17.66;31.98;100945.50;4966656;27;98287;-66
2023/06/12 02:04:30;;;;;;;;;;;;;;;17.59;32.03;100942.34;4971495;27;98317;-74
2023/06/12 02:06:57;;;;;;;;;;;;;;;17.53;32.15;100941.66;4984247;27;98542;-73
2023/06/12 02:09:24;;;;;;;;;;;;;;;17.48;32.13;100949.09;4966810;27;98033;-74
2023/06/12 02:11:51;;;;;;;;;;;;;;;17.40;32.01;100953.34;4980493;27;98228;-73
2023/06/12 02:14:17;;;;;;;;;;;;;;;17.33;32.15;100947.47;4960475;27;99930;-74
2023/06/12 02:16:47;;;;;;;;;;;;;;;17.26;32.15;100945.16;4944919;27;98228;-66
2023/06/12 02:19:14;;;;;;;;;;;;;;;17.19;32.17;100952.91;4949331;27;98074;-66
2023/06/12 02:21:41;;;;;;;;;;;;;;;17.13;32.20;100945.91;4974579;27;98248;-73
2023/06/12 02:24:07;;;;;;;;;;;;;;;17.08;32.26;100944.09;4963577;27;98291;-74
2023/06/12 02:26:35;;;;;;;;;;;;;;;17.03;32.19;100943.41;4948847;27;98128;-74
2023/06/12 02:29:06;;;;;;;;;;;;;;;16.97;32.26;100945.38;4979628;27;98168;-74
2023/06/12 02:31:32;;;;;;;;;;;;;;;16.88;32.10;100942.53;4970645;27;98058;-74
2023/06/12 02:33:59;;;;;;;;;;;;;;;16.84;32.28;100946.16;4978209;27;98302;-66
2023/06/12 02:36:25;;;;;;;;;;;;;;;16.77;32.26;100951.97;4965951;27;97840;-74
2023/06/12 02:38:52;;;;;;;;;;;;;;;16.73;32.31;100950.13;4965047;27;100132;-74
2023/06/12 02:41:18;;;;;;;;;;;;;;;16.67;32.33;100952.13;4966470;27;97860;-66
2023/06/12 02:43:44;;;;;;;;;;;;;;;16.62;32.28;100952.19;4958526;27;98050;-70
2023/06/12 02:46:10;;;;;;;;;;;;;;;16.54;32.05;100948.22;4948441;27;100080;-74
2023/06/12 02:48:36;;;;;;;;;;;;;;;16.50;32.44;100957.28;4990942;27;99254;-66
2023/06/12 02:51:02;;;;;;;;;;;;;;;16.44;32.25;100951.09;4967531;27;98109;-66
2023/06/12 02:53:29;;;;;;;;;;;;;;;16.40;32.08;100966.41;4943099;27;98053;-66
2023/06/12 02:55:56;;;;;;;;;;;;;;;16.33;32.37;100957.78;4947659;27;98009;-74
2023/06/12 02:58:22;;;;;;;;;;;;;;;16.29;32.29;100960.28;4965225;27;98131;-66
2023/06/12 03:00:48;;;;;;;;;;;;;;;16.26;32.32;100962.78;4966058;27;98286;-74
2023/06/12 03:03:15;;;;;;;;;;;;;;;16.22;32.26;100962.56;4945817;27;98079;-74
2023/06/12 03:05:43;;;;;;;;;;;;;;;16.19;32.28;100972.13;4975756;27;98193;-66
2023/06/12 03:08:10;;;;;;;;;;;;;;;16.15;32.30;100976.53;4960819;27;98314;-74
2023/06/12 03:10:36;;;;;;;;;;;;;;;16.12;32.28;100979.84;4947579;27;99568;-66
2023/06/12 03:13:03;;;;;;;;;;;;;;;16.09;32.33;100977.69;4950294;27;98618;-74
2023/06/12 03:15:30;;;;;;;;;;;;;;;16.06;32.60;100978.28;4976477;27;98559;-74
2023/06/12 03:17:56;;;;;;;;;;;;;;;16.06;32.42;100980.19;4958665;27;99199;-74
2023/06/12 03:20:26;;;;;;;;;;;;;;;16.02;32.50;100976.44;4960699;27;97999;-74
2023/06/12 03:22:53;;;;;;;;;;;;;;;15.98;32.37;100978.91;4964494;27;98580;-74
2023/06/12 03:25:19;;;;;;;;;;;;;;;15.95;32.39;100977.59;4976463;27;99739;-66
2023/06/12 03:27:46;;;;;;;;;;;;;;;15.90;32.46;100982.28;4961890;27;98967;-74
2023/06/12 03:30:12;;;;;;;;;;;;;;;15.87;32.63;100980.13;4974899;27;98329;-66
2023/06/12 03:32:39;;;;;;;;;;;;;;;15.85;32.28;100983.16;4957609;27;100575;-74
2023/06/12 03:35:05;;;;;;;;;;;;;;;15.85;32.23;100976.91;4958565;27;97932;-74
2023/06/12 03:37:31;;;;;;;;;;;;;;;15.86;32.32;100984.78;4966140;27;99386;-74
2023/06/12 03:39:58;;;;;;;;;;;;;;;15.92;32.59;100980.91;4944964;27;99391;-74
2023/06/12 03:42:24;;;;;;;;;;;;;;;16.02;32.37;100982.69;4959764;27;98412;-66
2023/06/12 03:44:51;;;;;;;;;;;;;;;16.11;32.54;100985.56;4961274;27;99699;-74
2023/06/12 03:47:18;;;;;;;;;;;;;;;16.19;32.29;100979.47;4954266;28;98722;-74
2023/06/12 03:49:46;;;;;;;;;;;;;;;16.28;32.42;100982.34;4962889;27;98790;-66
2023/06/12 03:52:12;;;;;;;;;;;;;;;16.36;32.41;100979.78;4959770;27;98325;-74
2023/06/12 03:54:39;;;;;;;;;;;;;;;16.45;32.22;100982.66;4963213;27;97950;-74
2023/06/12 03:57:06;;;;;;;;;;;;;;;16.51;32.23;100986.13;4960377;27;98001;-66
2023/06/12 03:59:33;;;;;;;;;;;;;;;16.57;32.40;100972.13;4963709;27;98219;-74
2023/06/12 04:02:01;;;;;;;;;;;;;;;16.63;32.36;100979.13;4959962;27;98013;-66
2023/06/12 04:04:28;;;;;;;;;;;;;;;16.72;32.37;100981.97;4979470;27;98845;-74
2023/06/12 04:06:54;;;;;;;;;;;;;;;16.80;32.36;100983.25;4955660;27;98137;-73
2023/06/12 04:09:22;;;;;;;;;;;;;;;16.86;32.33;100985.59;4957121;27;98261;-73
2023/06/12 04:11:48;;;;;;;;;;;;;;;16.95;32.24;100982.19;4959940;27;98314;-74
2023/06/12 04:14:15;;;;;;;;;;;;;;;17.02;32.26;100985.34;4977389;27;98440;-66
2023/06/12 04:16:41;;;;;;;;;;;;;;;17.07;32.29;100986.06;4968491;27;98217;-65
2023/06/12 04:19:08;;;;;;;;;;;;;;;17.13;32.21;100987.63;4967754;27;98073;-66
2023/06/12 04:21:35;;;;;;;;;;;;;;;17.20;32.25;100991.84;4966984;27;98299;-74
2023/06/12 04:24:13;;;;;;;;;;;;;;;17.23;32.16;100989.34;4981636;27;98292;-65
2023/06/12 04:26:41;;;;;;;;;;;;;;;17.30;32.21;100992.50;4979690;27;97957;-72
2023/06/12 04:29:08;;;;;;;;;;;;;;;17.35;32.25;101000.56;4970206;27;98444;-73
2023/06/12 04:31:36;;;;;;;;;;;;;;;17.40;32.15;100992.28;4966118;27;98078;-65
2023/06/12 04:34:03;;;;;;;;;;;;;;;17.47;32.20;101000.06;4978353;27;98498;-66
2023/06/12 04:36:33;;;;;;;;;;;;;;;17.52;32.14;100993.72;4967448;27;98098;-74
2023/06/12 04:39:01;;;;;;;;;;;;;;;17.59;32.04;100997.66;4983174;27;97963;-66
2023/06/12 04:41:28;;;;;;;;;;;;;;;17.65;32.11;101001.13;4966169;27;97939;-66
2023/06/12 04:43:58;;;;;;;;;;;;;;;17.70;32.12;100998.28;4964463;27;98250;-74
2023/06/12 04:46:27;;;;;;;;;;;;;;;17.77;31.95;101000.66;4971705;27;98980;-74
2023/06/12 04:48:54;;;;;;;;;;;;;;;17.85;32.02;100997.22;4976174;27;98373;-74
2023/06/12 04:51:23;;;;;;;;;;;;;;;17.93;31.88;100999.22;4976379;27;98285;-74
2023/06/12 04:53:49;;;;;;;;;;;;;;;18.04;31.83;100999.84;4964240;27;98345;-66
2023/06/12 04:56:21;;;;;;;;;;;;;;;18.12;31.98;101005.38;4965134;27;98194;-66
2023/06/12 04:58:49;;;;;;;;;;;;;;;18.24;31.92;101004.06;4973395;27;98108;-74
2023/06/12 05:01:19;;;;;;;;;;;;;;;18.34;31.99;101004.63;4978469;27;97970;-74
2023/06/12 05:03:46;;;;;;;;;;;;;;;18.48;31.70;101001.06;4982422;27;98285;-74
2023/06/12 05:06:12;;;;;;;;;;;;;;;18.63;31.63;101004.25;4968508;27;98603;-74
2023/06/12 05:08:38;;;;;;;;;;;;;;;18.80;31.78;101008.28;4963810;27;98212;-66
2023/06/12 05:11:05;;;;;;;;;;;;;;;19.00;31.57;101007.78;4976420;27;98162;-66
2023/06/12 05:13:32;;;;;;;;;;;;;;;19.18;31.45;101000.53;4967970;27;99193;-66
2023/06/12 05:15:59;;;;;;;;;;;;;;;19.38;31.47;100999.19;4967898;27;98244;-74
2023/06/12 05:18:26;;;;;;;;;;;;;;;19.58;31.33;101001.38;4969150;27;98419;-74
2023/06/12 05:20:52;;;;;;;;;;;;;;;19.77;31.09;101005.81;4966531;27;98392;-74
2023/06/12 05:23:19;;;;;;;;;;;;;;;19.97;31.11;101002.50;4970061;27;98341;-66
2023/06/12 05:25:45;;;;;;;;;;;;;;;20.15;31.00;101003.34;4973224;27;99768;-66
2023/06/12 05:28:11;;;;;;;;;;;;;;;20.35;31.07;101004.66;4968598;27;98131;-66
2023/06/12 05:30:37;;;;;;;;;;;;;;;20.53;31.01;101000.06;4980635;27;98229;-66
2023/06/12 05:33:04;;;;;;;;;;;;;;;20.70;31.02;101002.78;4979784;27;111069;-74
2023/06/12 05:35:31;;;;;;;;;;;;;;;20.90;30.96;101000.53;4979298;27;98996;-66
2023/06/12 05:37:58;;;;;;;;;;;;;;;21.09;30.82;101010.00;4983085;27;98326;-66
2023/06/12 05:40:24;;;;;;;;;;;;;;;21.30;30.69;101001.13;4965998;27;98862;-66
2023/06/12 05:42:50;;;;;;;;;;;;;;;21.53;30.60;100997.00;4969690;27;99837;-69
2023/06/12 05:45:17;;;;;;;;;;;;;;;21.87;30.69;101005.44;4974165;27;98272;-74
2023/06/12 05:47:43;;;;;;;;;;;;;;;22.52;30.34;100993.91;4968827;27;97942;-66
2023/06/12 05:50:09;;;;;;;;;;;;;;;23.25;29.86;101001.66;4979168;27;98654;-74
2023/06/12 05:52:36;;;;;;;;;;;;;;;23.30;30.20;101005.31;4977302;27;98330;-66
2023/06/12 05:55:04;;;;;;;;;;;;;;;23.68;30.46;101008.63;4965037;27;98055;-66
2023/06/12 05:57:30;;;;;;;;;;;;;;;24.18;30.23;101012.19;4962819;27;98446;-75
2023/06/12 05:59:56;;;;;;;;;;;;;;;24.62;30.34;101006.81;4981280;27;98239;-66
2023/06/12 06:02:23;;;;;;;;;;;;;;;25.09;30.34;101009.75;4968250;27;97791;-67
2023/06/12 06:04:52;;;;;;;;;;;;;;;25.59;30.08;101007.50;4982867;27;98072;-67
2023/06/12 06:07:19;;;;;;;;;;;;;;;26.18;30.26;101006.56;4968517;27;98688;-67
2023/06/12 06:09:46;;;;;;;;;;;;;;;27.23;29.58;101010.31;4970789;27;99371;-67
2023/06/12 06:12:13;;;;;;;;;;;;;;;29.80;27.60;101017.31;4983141;27;99141;-74
2023/06/12 06:14:41;;;;;;;;;;;;;;;29.49;28.23;101024.19;4970381;27;98389;-67
2023/06/12 06:17:07;;;;;;;;;;;;;;;30.00;28.63;101023.41;4966021;27;98286;-67
2023/06/12 06:19:34;;;;;;;;;;;;;;;30.43;28.72;101015.38;4964628;27;98214;-67
2023/06/12 06:22:04;;;;;;;;;;;;;;;30.78;28.78;101025.88;4962772;27;98876;-75
2023/06/12 06:24:30;;;;;;;;;;;;;;;33.17;27.08;101036.00;4972065;27;98264;-74
2023/06/12 06:26:57;;;;;;;;;;;;;;;34.03;26.65;101040.91;4963526;27;98266;-74
2023/06/12 06:29:23;;;;;;;;;;;;;;;33.98;27.63;101029.41;4963568;27;97941;-68
2023/06/12 06:31:50;;;;;;;;;;;;;;;34.26;27.20;101033.91;4965286;27;98510;-74
2023/06/12 06:34:18;;;;;;;;;;;;;;;34.44;27.65;101035.28;4967192;27;99889;-74
2023/06/12 06:36:45;;;;;;;;;;;;;;;35.01;27.42;101028.19;4961221;27;98109;-73
2023/06/12 06:39:11;;;;;;;;;;;;;;;35.40;27.05;101033.19;4963041;27;98333;-74
2023/06/12 06:41:38;;;;;;;;;;;;;;;35.12;27.42;101028.06;4986727;27;98234;-68
2023/06/12 06:44:04;;;;;;;;;;;;;;;34.90;27.87;101033.16;4961971;27;99502;-74
2023/06/12 06:46:30;;;;;;;;;;;;;;;34.83;27.67;101036.03;4969542;27;98180;-68
2023/06/12 06:48:57;;;;;;;;;;;;;;;34.69;27.93;101029.41;4964101;27;97882;-68
2023/06/12 06:51:24;;;;;;;;;;;;;;;34.55;27.80;101031.59;4959199;27;99494;-74
2023/06/12 06:53:51;;;;;;;;;;;;;;;34.58;27.59;101028.75;4964474;27;98118;-73
2023/06/12 06:56:18;;;;;;;;;;;;;;;34.69;27.59;101025.81;4961434;27;98155;-73
2023/06/12 06:58:45;;;;;;;;;;;;;;;34.95;27.68;101020.69;4966923;27;97824;-68
2023/06/12 07:01:11;;;;;;;;;;;;;;;35.21;27.61;101027.50;4965494;27;98678;-68
2023/06/12 07:03:38;;;;;;;;;;;;;;;35.55;27.45;101025.38;4981553;27;97919;-73
2023/06/12 07:06:04;;;;;;;;;;;;;;;36.06;26.88;101039.34;4960348;27;97970;-68
2023/06/12 07:08:32;;;;;;;;;;;;;;;36.54;26.96;101024.78;4976482;27;98137;-73
2023/06/12 07:10:59;;;;;;;;;;;;;;;36.40;27.11;101035.50;4970207;27;98085;-74
2023/06/12 07:13:26;;;;;;;;;;;;;;;35.73;27.50;101033.50;4977294;27;98038;-72
2023/06/12 07:15:52;;;;;;;;;;;;;;;34.80;27.82;101031.28;4970920;27;98184;-73
2023/06/12 07:18:18;;;;;;;;;;;;;;;34.54;28.03;101025.19;4981000;27;98186;-73
2023/06/12 07:20:45;;;;;;;;;;;;;;;35.35;27.41;101021.69;4965248;27;98395;-68
2023/06/12 07:23:12;;;;;;;;;;;;;;;35.28;27.37;101021.81;4978749;27;98712;-68
2023/06/12 07:25:38;;;;;;;;;;;;;;;35.61;27.55;101025.72;4973558;27;99487;-73
2023/06/12 07:28:05;;;;;;;;;;;;;;;36.29;27.01;101025.28;4963564;27;100410;-68
2023/06/12 07:30:33;;;;;;;;;;;;;;;36.72;27.02;101018.78;4967431;27;98519;-68
2023/06/12 07:33:00;;;;;;;;;;;;;;;37.12;26.93;101021.53;4981441;27;98752;-68
2023/06/12 07:35:26;;;;;;;;;;;;;;;37.46;26.68;101026.75;4965647;27;98405;-68
2023/06/12 07:37:53;;;;;;;;;;;;;;;37.78;26.58;101016.72;4966264;27;98293;-72
2023/06/12 07:40:19;;;;;;;;;;;;;;;38.03;26.37;101019.66;4964093;27;97795;-68
2023/06/12 07:42:46;;;;;;;;;;;;;;;38.32;26.68;101010.44;4963534;27;98465;-68
2023/06/12 07:45:12;;;;;;;;;;;;;;;38.63;26.33;101015.56;4968047;27;98033;-68
2023/06/12 07:47:38;;;;;;;;;;;;;;;39.02;25.77;101005.94;4966005;27;98429;-68
2023/06/12 07:50:06;;;;;;;;;;;;;;;39.49;25.72;101014.47;4980867;27;99820;-73
2023/06/12 07:52:33;;;;;;;;;;;;;;;39.90;25.55;101014.72;4964458;27;100711;-69
2023/06/12 07:55:01;;;;;;;;;;;;;;;38.97;26.39;101014.97;4975289;27;98192;-73
2023/06/12 07:57:28;;;;;;;;;;;;;;;37.40;27.07;101011.63;4964485;27;99827;-69
2023/06/12 07:59:54;;;;;;;;;;;;;;;36.67;27.55;101004.47;4965164;27;99301;-69
2023/06/12 08:02:22;;;;;;;;;;;;;;;38.70;26.29;101012.53;4967230;27;99636;-68
2023/06/12 08:04:48;;;;;;;;;;;;;;;39.67;25.78;101015.91;4988213;27;98201;-72
2023/06/12 08:07:15;;;;;;;;;;;;;;;40.57;25.10;101014.31;4964741;27;98160;-73
2023/06/12 08:09:42;;;;;;;;;;;;;;;41.10;24.95;101005.75;4969737;27;98388;-73
2023/06/12 08:12:10;;;;;;;;;;;;;;;41.48;25.02;101012.31;4983964;27;98279;-74
2023/06/12 08:14:37;;;;;;;;;;;;;;;41.31;25.14;101018.22;4988284;27;97992;-74
2023/06/12 08:17:04;;;;;;;;;;;;;;;40.40;25.68;101008.06;4984584;27;98282;-74
2023/06/12 08:19:32;;;;;;;;;;;;;;;39.15;26.44;101005.94;4967962;27;99735;-74
2023/06/12 08:21:59;;;;;;;;;;;;;;;38.99;26.65;100989.97;4966827;27;98076;-74
2023/06/12 08:24:29;;;;;;;;;;;;;;;37.76;27.25;101000.28;4967757;27;98298;-75
2023/06/12 08:26:59;;;;;;;;;;;;;;;37.75;27.02;101007.13;4966273;27;98916;-75
2023/06/12 08:29:26;;;;;;;;;;;;;;;35.70;28.36;100992.31;4988771;27;98375;-75
2023/06/12 08:31:55;;;;;;;;;;;;;;;34.40;29.31;100992.56;4994960;27;98277;-75
2023/06/12 08:34:25;;;;;;;;;;;;;;;33.63;29.02;101003.34;4981824;27;98926;-75
2023/06/12 08:36:53;;;;;;;;;;;;;;;32.93;29.12;100995.06;4982970;27;98591;-75
2023/06/12 08:39:19;;;;;;;;;;;;;;;32.52;29.32;100992.84;4969190;27;98358;-75
2023/06/12 08:41:53;;;;;;;;;;;;;;;31.79;29.67;100990.59;4966886;27;98134;-74
2023/06/12 08:44:20;;;;;;;;;;;;;;;31.31;29.75;100987.44;4999018;27;98184;-74
2023/06/12 08:46:46;;;;;;;;;;;;;;;34.43;27.13;100982.56;4969031;27;106156;-75
2023/06/12 08:49:15;;;;;;;;;;;;;;;36.95;25.66;101005.91;4982633;27;98235;-76
2023/06/12 08:51:46;;;;;;;;;;;;;;;36.05;26.44;101010.50;4981178;27;98203;-75
2023/06/12 08:54:12;;;;;;;;;;;;;;;36.53;26.40;100997.16;4970012;27;99038;-75
2023/06/12 08:56:41;;;;;;;;;;;;;;;34.17;28.13;100995.25;4967423;27;97983;-74
2023/06/12 08:59:07;;;;;;;;;;;;;;;33.20;28.77;101006.44;4979545;27;98143;-74
2023/06/12 09:01:34;;;;;;;;;;;;;;;33.76;27.66;100998.03;4966988;27;98753;-76
2023/06/12 09:04:02;;;;;;;;;;;;;;;33.80;28.00;100996.81;4966540;27;98057;-76
2023/06/12 09:06:29;;;;;;;;;;;;;;;34.78;26.87;100994.50;4968774;27;99128;-75
2023/06/12 09:08:57;;;;;;;;;;;;;;;36.24;26.20;101000.53;4965652;27;99391;-73
2023/06/12 09:11:23;;;;;;;;;;;;;;;35.99;26.28;101003.03;4967043;27;98130;-73
2023/06/12 09:13:51;;;;;;;;;;;;;;;34.10;27.69;100995.31;4970107;27;97995;-75
2023/06/12 09:16:18;;;;;;;;;;;;;;;33.31;28.42;101001.59;4970256;27;99123;-76
2023/06/12 09:18:49;;;;;;;;;;;;;;;36.17;25.86;100992.25;4995835;27;97999;-75
2023/06/12 09:21:17;;;;;;;;;;;;;;;36.66;25.92;100997.28;4981894;27;98233;-74
2023/06/12 09:23:45;;;;;;;;;;;;;;;34.79;27.18;100999.69;4979581;27;98075;-73
2023/06/12 09:26:15;;;;;;;;;;;;;;;36.21;26.34;100998.59;4989710;27;98361;-74
2023/06/12 09:28:42;;;;;;;;;;;;;;;36.46;26.44;100989.69;4965934;27;98100;-75
2023/06/12 09:31:11;;;;;;;;;;;;;;;37.89;25.15;101005.19;4969951;27;98510;-74
2023/06/12 09:33:40;;;;;;;;;;;;;;;37.48;26.04;100989.78;4966627;27;98563;-74
2023/06/12 09:36:10;;;;;;;;;;;;;;;35.74;26.95;100990.22;4968950;27;98119;-76
2023/06/12 09:38:37;;;;;;;;;;;;;;;37.98;25.44;100983.66;4982927;27;97904;-72
2023/06/12 09:41:05;;;;;;;;;;;;;;;39.06;25.13;100983.28;4982076;27;98595;-75
2023/06/12 09:43:32;;;;;;;;;;;;;;;41.24;23.73;100981.78;4971449;27;98485;-72
2023/06/12 09:45:58;;;;;;;;;;;;;;;42.44;23.43;100998.78;4984815;27;98025;-73
2023/06/12 09:48:30;;;;;;;;;;;;;;;43.48;22.62;100994.59;4964613;27;98011;-79
2023/06/12 09:50:58;;;;;;;;;;;;;;;44.04;22.76;100993.63;4966686;27;98072;-71
2023/06/12 09:53:25;;;;;;;;;;;;;;;44.62;22.79;100988.47;4972845;27;98351;-76
2023/06/12 09:55:51;;;;;;;;;;;;;;;45.36;22.45;100996.81;4967518;27;99744;-70
2023/06/12 09:58:18;;;;;;;;;;;;;;;46.29;22.67;100981.81;4964231;27;97940;-70
2023/06/12 10:00:45;;;;;;;;;;;;;;;42.64;24.91;100970.69;4983883;27;98105;-69
2023/06/12 10:03:13;;;;;;;;;;;;;;;44.89;23.07;100983.72;4969331;27;98657;-70
2023/06/12 10:05:49;;;;;;;;;;;;;;;45.69;22.66;100978.59;4966536;27;98126;-70
2023/06/12 10:08:19;;;;;;;;;;;;;;;45.60;23.01;100965.31;4980698;27;97915;-76
2023/06/12 10:10:48;;;;;;;;;;;;;;;44.78;23.63;100967.28;4967001;27;98319;-76
2023/06/12 10:13:14;;;;;;;;;;;;;;;43.03;25.00;100957.47;4984979;27;98178;-76
2023/06/12 10:15:40;;;;;;;;;;;;;;;40.42;26.41;100956.78;4968544;27;98909;-76
2023/06/12 10:18:08;;;;;;;;;;;;;;;41.71;25.02;100951.53;4965276;27;99584;-75
2023/06/12 10:20:35;;;;;;;;;;;;;;;42.84;24.35;100965.31;4972360;27;98462;-69
2023/06/12 10:23:04;;;;;;;;;;;;;;;42.94;24.49;100957.53;4949026;27;98152;-76
2023/06/12 10:25:31;;;;;;;;;;;;;;;42.72;24.71;100960.63;4969251;27;98300;-69
2023/06/12 10:27:58;;;;;;;;;;;;;;;39.90;26.37;100959.09;4965840;27;97978;-77
2023/06/12 10:30:25;;;;;;;;;;;;;;;40.20;26.08;100948.34;4959319;27;98053;-69
2023/06/12 10:32:52;;;;;;;;;;;;;;;42.02;24.37;100954.22;4970062;27;98289;-69
2023/06/12 10:35:30;;;;;;;;;;;;;;;41.22;25.09;100945.50;4969336;27;97948;-69
2023/06/12 10:37:58;;;;;;;;;;;;;;;38.57;26.92;100936.53;4961622;27;98182;-75
2023/06/12 10:40:26;;;;;;;;;;;;;;;37.55;27.45;100944.63;4965451;27;97912;-76
2023/06/12 10:42:52;;;;;;;;;;;;;;;36.64;27.75;100935.19;4962658;27;98223;-76
2023/06/12 10:45:28;;;;;;;;;;;;;;;35.88;28.04;100933.91;4997889;27;98046;-69
2023/06/12 10:48:06;;;;;;;;;;;;;;;35.76;27.83;100939.34;4979712;27;98569;-75
2023/06/12 10:50:39;;;;;;;;;;;;;;;36.75;27.12;100942.13;5000327;27;99709;-69
2023/06/12 10:53:08;;;;;;;;;;;;;;;35.51;27.70;100934.22;4964055;27;98415;-75
2023/06/12 10:55:37;;;;;;;;;;;;;;;35.01;28.11;100932.22;4972565;27;98357;-75
2023/06/12 10:58:07;;;;;;;;;;;;;;;34.63;27.78;100926.78;4964324;27;99252;-75
2023/06/12 11:00:36;;;;;;;;;;;;;;;37.07;26.03;100930.16;4961782;27;98450;-76
2023/06/12 11:03:07;;;;;;;;;;;;;;;35.80;27.01;100926.84;4968614;27;98056;-69
2023/06/12 11:05:34;;;;;;;;;;;;;;;38.05;25.42;100937.66;4971393;27;98034;-69
2023/06/12 11:08:06;;;;;;;;;;;;;;;39.21;24.89;100931.66;4980603;27;98742;-69
2023/06/12 11:10:33;;;;;;;;;;;;;;;39.38;24.84;100931.50;4984088;27;98930;-76
2023/06/12 11:13:02;;;;;;;;;;;;;;;37.31;26.54;100927.16;4978519;27;98706;-75
2023/06/12 11:15:32;;;;;;;;;;;;;;;36.11;27.10;100915.44;4982695;27;98120;-69
2023/06/12 11:17:58;;;;;;;;;;;;;;;35.36;27.46;100903.59;4982060;27;98263;-76
2023/06/12 11:20:25;;;;;;;;;;;;;;;35.07;27.60;100902.53;4966165;27;98139;-76
2023/06/12 11:23:01;;;;;;;;;;;;;;;35.83;26.80;100894.34;4966953;27;98249;-68
2023/06/12 11:25:41;;;;;;;;;;;;;;;35.96;26.65;100889.69;4970032;27;99516;-76
2023/06/12 11:28:08;;;;;;;;;;;;;;;34.51;27.69;100897.34;4976459;27;98318;-76
2023/06/12 11:30:35;;;;;;;;;;;;;;;34.48;27.90;100892.56;4965565;27;100530;-68
2023/06/12 11:33:14;;;;;;;;;;;;;;;35.79;26.70;100893.63;4966196;27;98144;-68
2023/06/12 11:35:44;;;;;;;;;;;;;;;36.34;26.23;100898.50;4980173;27;98246;-68
2023/06/12 11:38:16;;;;;;;;;;;;;;;35.25;27.29;100891.00;4972407;27;97934;-68
2023/06/12 11:40:42;;;;;;;;;;;;;;;34.45;27.74;100885.81;4991437;27;97922;-69
2023/06/12 11:43:09;;;;;;;;;;;;;;;34.49;27.45;100880.19;4983296;27;98021;-68
2023/06/12 11:45:41;;;;;;;;;;;;;;;34.03;27.56;100887.16;4974617;27;98200;-75
2023/06/12 11:48:14;;;;;;;;;;;;;;;34.74;27.41;100882.59;4983813;27;98208;-68
2023/06/12 11:50:41;;;;;;;;;;;;;;;34.85;26.97;100879.66;4975413;27;98305;-73
2023/06/12 11:53:10;;;;;;;;;;;;;;;34.54;27.55;100881.72;4993137;27;98007;-76
2023/06/12 11:55:37;;;;;;;;;;;;;;;35.48;26.91;100890.19;4971512;27;98287;-75
2023/06/12 11:58:04;;;;;;;;;;;;;;;34.39;27.68;100881.13;4966478;27;98160;-76
2023/06/12 12:00:32;;;;;;;;;;;;;;;35.25;26.72;100868.59;4966953;27;100299;-67
2023/06/12 12:03:01;;;;;;;;;;;;;;;35.58;26.67;100878.03;4974177;27;98141;-68
2023/06/12 12:05:31;;;;;;;;;;;;;;;35.84;26.49;100868.72;4971900;27;99274;-76
2023/06/12 12:08:03;;;;;;;;;;;;;;;36.26;26.25;100862.63;4980197;27;98239;-75
2023/06/12 12:10:30;;;;;;;;;;;;;;;36.15;26.68;100862.88;4974725;27;98172;-67
2023/06/12 12:13:02;;;;;;;;;;;;;;;36.82;25.97;100859.75;4964567;27;98362;-75
2023/06/12 12:15:34;;;;;;;;;;;;;;;35.56;27.16;100855.25;4972499;27;98075;-75
2023/06/12 12:18:01;;;;;;;;;;;;;;;35.39;27.05;100852.34;4966239;27;98617;-67
2023/06/12 12:20:30;;;;;;;;;;;;;;;36.03;26.67;100858.72;4982627;27;98396;-67
2023/06/12 12:23:00;;;;;;;;;;;;;;;36.38;26.28;100856.34;4972932;27;98221;-75
2023/06/12 12:25:31;;;;;;;;;;;;;;;36.50;26.49;100850.09;4988938;27;97856;-67
2023/06/12 12:28:02;;;;;;;;;;;;;;;36.54;26.24;100855.63;4969821;27;98267;-75
2023/06/12 12:30:28;;;;;;;;;;;;;;;36.63;25.96;100858.63;4976194;27;97984;-67
2023/06/12 12:32:55;;;;;;;;;;;;;;;36.09;26.54;100847.78;4971386;27;98126;-67
2023/06/12 12:35:22;;;;;;;;;;;;;;;36.35;26.58;100834.78;4974112;27;98225;-76
2023/06/12 12:37:50;;;;;;;;;;;;;;;36.64;26.20;100828.53;4971562;27;99669;-68
2023/06/12 12:40:18;;;;;;;;;;;;;;;36.79;26.13;100835.38;4971079;27;98718;-77